sensor_id;sensor_type;location;lat;lon;timestamp;temperature;humidity
38604;DHT22;24924;50.054;8.790;2023-10-09T00:00:11;13.70;99.90
38604;DHT22;24924;50.054;8.790;2023-10-09T00:02:57;13.60;99.90
38604;DHT22;24924;50.054;8.790;2023-10-09T00:05:26;13.70;99.90
38604;DHT22;24924;50.054;8.790;2023-10-09T00:08:05;13.70;99.90
38604;DHT22;24924;50.054;8.790;2023-10-09T00:10:31;13.70;99.90
38604;DHT22;24924;50.054;8.790;2023-10-09T00:13:02;13.80;99.90
38604;DHT22;24924;50.054;8.790;2023-10-09T00:20:24;13.60;99.90
38604;DHT22;24924;50.054;8.790;2023-10-09T00:23:03;13.10;99.90
38604;DHT22;24924;50.054;8.790;2023-10-09T00:28:12;13.60;99.90
38604;DHT22;24924;50.054;8.790;2023-10-09T00:30:41;13.60;99.90
38604;DHT22;24924;50.054;8.790;2023-10-09T00:33:07;13.70;99.90
38604;DHT22;24924;50.054;8.790;2023-10-09T00:35:38;13.50;99.90
38604;DHT22;24924;50.054;8.790;2023-10-09T00:38:10;13.50;99.90
38604;DHT22;24924;50.054;8.790;2023-10-09T00:40:51;13.60;99.90
38604;DHT22;24924;50.054;8.790;2023-10-09T00:43:29;13.70;99.90
38604;DHT22;24924;50.054;8.790;2023-10-09T00:45:58;13.50;99.90
38604;DHT22;24924;50.054;8.790;2023-10-09T00:48:38;13.50;99.90
38604;DHT22;24924;50.054;8.790;2023-10-09T00:53:43;13.60;99.90
38604;DHT22;24924;50.054;8.790;2023-10-09T00:56:09;13.60;99.90
38604;DHT22;24924;50.054;8.790;2023-10-09T00:58:55;13.60;99.90
38604;DHT22;24924;50.054;8.790;2023-10-09T01:04:01;14.10;99.90
38604;DHT22;24924;50.054;8.790;2023-10-09T01:06:41;13.80;99.90
38604;DHT22;24924;50.054;8.790;2023-10-09T01:09:15;13.90;99.90
38604;DHT22;24924;50.054;8.790;2023-10-09T01:14:27;13.40;99.90
38604;DHT22;24924;50.054;8.790;2023-10-09T01:16:53;13.60;99.90
38604;DHT22;24924;50.054;8.790;2023-10-09T01:19:21;13.60;99.90
38604;DHT22;24924;50.054;8.790;2023-10-09T01:21:51;13.50;99.90
38604;DHT22;24924;50.054;8.790;2023-10-09T01:24:17;13.40;99.90
38604;DHT22;24924;50.054;8.790;2023-10-09T01:26:46;13.40;99.90
38604;DHT22;24924;50.054;8.790;2023-10-09T01:29:13;13.50;99.90
38604;DHT22;24924;50.054;8.790;2023-10-09T01:31:56;13.40;99.90
38604;DHT22;24924;50.054;8.790;2023-10-09T01:34:30;13.50;99.90
38604;DHT22;24924;50.054;8.790;2023-10-09T01:37:07;13.40;99.90
38604;DHT22;24924;50.054;8.790;2023-10-09T01:39:49;13.30;99.90
38604;DHT22;24924;50.054;8.790;2023-10-09T01:42:17;13.20;99.90
38604;DHT22;24924;50.054;8.790;2023-10-09T01:44:57;13.30;99.90
38604;DHT22;24924;50.054;8.790;2023-10-09T01:47:38;13.00;99.90
38604;DHT22;24924;50.054;8.790;2023-10-09T01:50:07;13.20;99.90
38604;DHT22;24924;50.054;8.790;2023-10-09T01:52:45;13.40;99.90
38604;DHT22;24924;50.054;8.790;2023-10-09T01:55:11;12.90;99.90
38604;DHT22;24924;50.054;8.790;2023-10-09T01:57:56;13.40;99.90
38604;DHT22;24924;50.054;8.790;2023-10-09T02:00:31;12.90;99.90
38604;DHT22;24924;50.054;8.790;2023-10-09T02:03:01;12.90;99.90
38604;DHT22;24924;50.054;8.790;2023-10-09T02:05:32;13.00;99.90
38604;DHT22;24924;50.054;8.790;2023-10-09T02:08:02;13.00;99.90
38604;DHT22;24924;50.054;8.790;2023-10-09T02:12:57;13.10;99.90
38604;DHT22;24924;50.054;8.790;2023-10-09T02:15:27;13.00;99.90
38604;DHT22;24924;50.054;8.790;2023-10-09T02:18:18;13.00;99.90
38604;DHT22;24924;50.054;8.790;2023-10-09T02:20:52;12.70;99.90
38604;DHT22;24924;50.054;8.790;2023-10-09T02:23:28;13.00;99.90
38604;DHT22;24924;50.054;8.790;2023-10-09T02:26:17;13.10;99.90
38604;DHT22;24924;50.054;8.790;2023-10-09T02:28:58;13.50;99.90
38604;DHT22;24924;50.054;8.790;2023-10-09T02:31:38;13.30;99.90
38604;DHT22;24924;50.054;8.790;2023-10-09T02:34:20;13.40;99.90
38604;DHT22;24924;50.054;8.790;2023-10-09T02:36:51;13.20;99.90
38604;DHT22;24924;50.054;8.790;2023-10-09T02:39:24;13.10;99.90
38604;DHT22;24924;50.054;8.790;2023-10-09T02:41:53;13.30;99.90
38604;DHT22;24924;50.054;8.790;2023-10-09T02:44:26;13.30;99.90
38604;DHT22;24924;50.054;8.790;2023-10-09T02:51:50;13.40;99.90
38604;DHT22;24924;50.054;8.790;2023-10-09T02:54:19;13.40;99.90
38604;DHT22;24924;50.054;8.790;2023-10-09T02:56:51;13.40;99.90
38604;DHT22;24924;50.054;8.790;2023-10-09T02:59:41;13.30;99.90
38604;DHT22;24924;50.054;8.790;2023-10-09T03:02:10;13.40;99.90
38604;DHT22;24924;50.054;8.790;2023-10-09T03:04:37;13.30;99.90
38604;DHT22;24924;50.054;8.790;2023-10-09T03:07:04;13.20;99.90
38604;DHT22;24924;50.054;8.790;2023-10-09T03:09:30;13.10;99.90
38604;DHT22;24924;50.054;8.790;2023-10-09T03:11:58;13.20;99.90
38604;DHT22;24924;50.054;8.790;2023-10-09T03:14:33;13.20;99.90
38604;DHT22;24924;50.054;8.790;2023-10-09T03:17:01;13.40;99.90
38604;DHT22;24924;50.054;8.790;2023-10-09T03:19:28;12.90;99.90
38604;DHT22;24924;50.054;8.790;2023-10-09T03:21:55;13.30;99.90
38604;DHT22;24924;50.054;8.790;2023-10-09T03:24:25;13.40;99.90
38604;DHT22;24924;50.054;8.790;2023-10-09T03:26:53;13.20;99.90
38604;DHT22;24924;50.054;8.790;2023-10-09T03:34:17;13.40;99.90
38604;DHT22;24924;50.054;8.790;2023-10-09T03:36:47;13.30;99.90
38604;DHT22;24924;50.054;8.790;2023-10-09T03:39:17;13.50;99.90
38604;DHT22;24924;50.054;8.790;2023-10-09T03:44:31;13.40;99.90
38604;DHT22;24924;50.054;8.790;2023-10-09T03:49:25;13.50;99.90
38604;DHT22;24924;50.054;8.790;2023-10-09T03:51:52;13.40;99.90
38604;DHT22;24924;50.054;8.790;2023-10-09T03:54:19;13.40;99.90
38604;DHT22;24924;50.054;8.790;2023-10-09T03:56:48;13.40;99.90
38604;DHT22;24924;50.054;8.790;2023-10-09T03:59:21;13.40;99.90
38604;DHT22;24924;50.054;8.790;2023-10-09T04:01:48;12.90;99.90
38604;DHT22;24924;50.054;8.790;2023-10-09T04:04:19;13.20;99.90
38604;DHT22;24924;50.054;8.790;2023-10-09T04:09:14;13.10;99.90
38604;DHT22;24924;50.054;8.790;2023-10-09T04:11:51;13.20;99.90
38604;DHT22;24924;50.054;8.790;2023-10-09T04:17:15;13.20;99.90
38604;DHT22;24924;50.054;8.790;2023-10-09T04:25:20;13.10;99.90
38604;DHT22;24924;50.054;8.790;2023-10-09T04:27:59;13.00;99.90
38604;DHT22;24924;50.054;8.790;2023-10-09T04:30:40;13.10;99.90
38604;DHT22;24924;50.054;8.790;2023-10-09T04:33:12;13.30;99.90
38604;DHT22;24924;50.054;8.790;2023-10-09T04:36:08;13.40;99.90
38604;DHT22;24924;50.054;8.790;2023-10-09T04:38:42;13.10;99.90
38604;DHT22;24924;50.054;8.790;2023-10-09T04:43:56;13.20;99.90
38604;DHT22;24924;50.054;8.790;2023-10-09T04:46:40;13.00;99.90
38604;DHT22;24924;50.054;8.790;2023-10-09T04:49:12;13.40;99.90
38604;DHT22;24924;50.054;8.790;2023-10-09T04:51:54;13.30;99.90
38604;DHT22;24924;50.054;8.790;2023-10-09T04:54:32;12.80;99.90
38604;DHT22;24924;50.054;8.790;2023-10-09T05:02:24;14.00;99.90
38604;DHT22;24924;50.054;8.790;2023-10-09T05:04:50;13.10;99.90
38604;DHT22;24924;50.054;8.790;2023-10-09T05:10:23;13.40;99.90
38604;DHT22;24924;50.054;8.790;2023-10-09T05:12:51;13.20;99.90
38604;DHT22;24924;50.054;8.790;2023-10-09T05:15:23;13.10;99.90
38604;DHT22;24924;50.054;8.790;2023-10-09T05:20:25;13.30;99.90
38604;DHT22;24924;50.054;8.790;2023-10-09T05:25:24;13.50;99.90
38604;DHT22;24924;50.054;8.790;2023-10-09T05:28:19;13.30;99.90
38604;DHT22;24924;50.054;8.790;2023-10-09T05:30:55;13.60;99.90
38604;DHT22;24924;50.054;8.790;2023-10-09T05:33:33;13.40;99.90
38604;DHT22;24924;50.054;8.790;2023-10-09T05:36:01;13.30;99.90
38604;DHT22;24924;50.054;8.790;2023-10-09T05:41:27;13.30;99.90
38604;DHT22;24924;50.054;8.790;2023-10-09T05:49:46;13.40;99.90
38604;DHT22;24924;50.054;8.790;2023-10-09T05:52:13;13.00;99.90
38604;DHT22;24924;50.054;8.790;2023-10-09T05:54:57;13.20;99.90
38604;DHT22;24924;50.054;8.790;2023-10-09T06:00:27;13.00;99.90
38604;DHT22;24924;50.054;8.790;2023-10-09T06:08:26;13.20;99.90
38604;DHT22;24924;50.054;8.790;2023-10-09T06:11:15;13.20;99.90
38604;DHT22;24924;50.054;8.790;2023-10-09T06:14:01;13.30;99.90
38604;DHT22;24924;50.054;8.790;2023-10-09T06:16:30;13.30;99.90
38604;DHT22;24924;50.054;8.790;2023-10-09T06:19:15;13.20;99.90
38604;DHT22;24924;50.054;8.790;2023-10-09T06:21:58;13.50;99.90
38604;DHT22;24924;50.054;8.790;2023-10-09T06:24:43;13.10;99.90
38604;DHT22;24924;50.054;8.790;2023-10-09T06:27:21;13.70;99.90
38604;DHT22;24924;50.054;8.790;2023-10-09T06:29:57;13.30;99.90
38604;DHT22;24924;50.054;8.790;2023-10-09T06:32:42;13.30;99.90
38604;DHT22;24924;50.054;8.790;2023-10-09T06:35:34;13.70;99.90
38604;DHT22;24924;50.054;8.790;2023-10-09T06:38:01;13.60;99.90
38604;DHT22;24924;50.054;8.790;2023-10-09T06:40:28;13.60;99.90
38604;DHT22;24924;50.054;8.790;2023-10-09T06:45:51;13.70;99.90
38604;DHT22;24924;50.054;8.790;2023-10-09T06:48:27;13.90;99.90
38604;DHT22;24924;50.054;8.790;2023-10-09T06:51:09;14.00;99.90
38604;DHT22;24924;50.054;8.790;2023-10-09T06:56:26;14.00;99.90
38604;DHT22;24924;50.054;8.790;2023-10-09T06:58:59;14.10;99.90
38604;DHT22;24924;50.054;8.790;2023-10-09T07:04:07;14.20;99.90
38604;DHT22;24924;50.054;8.790;2023-10-09T07:06:45;14.30;99.90
38604;DHT22;24924;50.054;8.790;2023-10-09T07:09:11;14.80;99.90
38604;DHT22;24924;50.054;8.790;2023-10-09T07:11:41;14.80;99.90
38604;DHT22;24924;50.054;8.790;2023-10-09T07:14:09;15.00;99.90
38604;DHT22;24924;50.054;8.790;2023-10-09T07:16:53;15.30;99.90
38604;DHT22;24924;50.054;8.790;2023-10-09T07:22:03;15.50;99.90
38604;DHT22;24924;50.054;8.790;2023-10-09T07:24:32;15.60;99.90
38604;DHT22;24924;50.054;8.790;2023-10-09T07:27:11;15.90;99.90
38604;DHT22;24924;50.054;8.790;2023-10-09T07:29:41;16.00;99.90
38604;DHT22;24924;50.054;8.790;2023-10-09T07:32:18;16.10;99.90
38604;DHT22;24924;50.054;8.790;2023-10-09T07:34:51;16.20;99.90
38604;DHT22;24924;50.054;8.790;2023-10-09T07:37:23;16.30;99.90
38604;DHT22;24924;50.054;8.790;2023-10-09T07:39:52;16.50;99.90
38604;DHT22;24924;50.054;8.790;2023-10-09T07:42:24;16.30;99.90
38604;DHT22;24924;50.054;8.790;2023-10-09T07:45:13;16.40;99.90
38604;DHT22;24924;50.054;8.790;2023-10-09T07:47:59;16.20;99.90
38604;DHT22;24924;50.054;8.790;2023-10-09T07:52:57;16.40;99.90
38604;DHT22;24924;50.054;8.790;2023-10-09T07:55:40;16.20;99.90
38604;DHT22;24924;50.054;8.790;2023-10-09T07:58:11;16.40;99.90
38604;DHT22;24924;50.054;8.790;2023-10-09T08:00:37;16.40;99.90
38604;DHT22;24924;50.054;8.790;2023-10-09T08:05:52;16.40;99.90
38604;DHT22;24924;50.054;8.790;2023-10-09T08:10:58;16.60;99.90
38604;DHT22;24924;50.054;8.790;2023-10-09T08:16:14;16.50;99.90
38604;DHT22;24924;50.054;8.790;2023-10-09T08:18:47;16.60;99.90
38604;DHT22;24924;50.054;8.790;2023-10-09T08:26:16;16.70;99.90
38604;DHT22;24924;50.054;8.790;2023-10-09T08:28:55;16.70;99.90
38604;DHT22;24924;50.054;8.790;2023-10-09T08:34:14;16.60;99.90
38604;DHT22;24924;50.054;8.790;2023-10-09T08:36:52;16.80;99.90
38604;DHT22;24924;50.054;8.790;2023-10-09T08:39:20;16.80;99.90
38604;DHT22;24924;50.054;8.790;2023-10-09T08:41:53;16.80;99.90
38604;DHT22;24924;50.054;8.790;2023-10-09T08:44:20;16.80;99.90
38604;DHT22;24924;50.054;8.790;2023-10-09T08:46:49;16.60;99.90
38604;DHT22;24924;50.054;8.790;2023-10-09T08:49:16;16.70;99.90
38604;DHT22;24924;50.054;8.790;2023-10-09T08:51:43;16.70;99.90
38604;DHT22;24924;50.054;8.790;2023-10-09T08:56:37;16.60;99.90
38604;DHT22;24924;50.054;8.790;2023-10-09T08:59:05;16.60;99.90
38604;DHT22;24924;50.054;8.790;2023-10-09T09:01:31;16.70;99.90
38604;DHT22;24924;50.054;8.790;2023-10-09T09:06:36;16.90;99.90
38604;DHT22;24924;50.054;8.790;2023-10-09T09:09:11;17.10;99.90
38604;DHT22;24924;50.054;8.790;2023-10-09T09:11:41;17.10;99.90
38604;DHT22;24924;50.054;8.790;2023-10-09T09:16:45;17.00;99.90
38604;DHT22;24924;50.054;8.790;2023-10-09T09:19:14;17.10;99.90
38604;DHT22;24924;50.054;8.790;2023-10-09T09:21:51;17.10;99.90
38604;DHT22;24924;50.054;8.790;2023-10-09T09:24:20;17.20;99.90
38604;DHT22;24924;50.054;8.790;2023-10-09T09:26:46;17.10;99.90
38604;DHT22;24924;50.054;8.790;2023-10-09T09:29:13;17.30;99.90
38604;DHT22;24924;50.054;8.790;2023-10-09T09:31:56;17.20;99.90
38604;DHT22;24924;50.054;8.790;2023-10-09T09:37:28;17.30;99.90
38604;DHT22;24924;50.054;8.790;2023-10-09T09:39:57;17.40;99.90
38604;DHT22;24924;50.054;8.790;2023-10-09T09:42:23;17.20;99.90
38604;DHT22;24924;50.054;8.790;2023-10-09T09:44:53;17.40;99.90
38604;DHT22;24924;50.054;8.790;2023-10-09T09:47:21;17.40;99.90
38604;DHT22;24924;50.054;8.790;2023-10-09T09:49:54;17.50;99.90
38604;DHT22;24924;50.054;8.790;2023-10-09T09:52:29;17.50;99.90
38604;DHT22;24924;50.054;8.790;2023-10-09T09:57:24;17.60;99.90
38604;DHT22;24924;50.054;8.790;2023-10-09T09:59:53;17.60;99.90
38604;DHT22;24924;50.054;8.790;2023-10-09T10:02:36;17.80;99.90
38604;DHT22;24924;50.054;8.790;2023-10-09T10:05:06;17.50;99.90
38604;DHT22;24924;50.054;8.790;2023-10-09T10:07:34;17.70;99.90
38604;DHT22;24924;50.054;8.790;2023-10-09T10:10:39;17.80;99.90
38604;DHT22;24924;50.054;8.790;2023-10-09T10:18:54;17.80;99.90
38604;DHT22;24924;50.054;8.790;2023-10-09T10:21:35;17.80;99.90
38604;DHT22;24924;50.054;8.790;2023-10-09T10:30:27;17.80;99.90
38604;DHT22;24924;50.054;8.790;2023-10-09T10:33:01;17.80;99.90
38604;DHT22;24924;50.054;8.790;2023-10-09T10:38:31;18.50;99.90
38604;DHT22;24924;50.054;8.790;2023-10-09T10:41:12;17.90;99.90
38604;DHT22;24924;50.054;8.790;2023-10-09T10:43:40;17.90;99.90
38604;DHT22;24924;50.054;8.790;2023-10-09T10:46:19;18.20;99.90
38604;DHT22;24924;50.054;8.790;2023-10-09T10:49:00;18.10;99.90
38604;DHT22;24924;50.054;8.790;2023-10-09T10:54:09;18.30;99.90
38604;DHT22;24924;50.054;8.790;2023-10-09T10:56:54;18.20;99.90
38604;DHT22;24924;50.054;8.790;2023-10-09T11:01:53;18.50;99.90
38604;DHT22;24924;50.054;8.790;2023-10-09T11:04:20;18.60;99.90
38604;DHT22;24924;50.054;8.790;2023-10-09T11:15:09;19.40;99.90
38604;DHT22;24924;50.054;8.790;2023-10-09T11:18:03;19.50;99.90
38604;DHT22;24924;50.054;8.790;2023-10-09T11:23:22;19.60;99.90
38604;DHT22;24924;50.054;8.790;2023-10-09T11:26:04;19.40;99.90
38604;DHT22;24924;50.054;8.790;2023-10-09T11:29:12;19.50;99.90
38604;DHT22;24924;50.054;8.790;2023-10-09T11:32:01;19.70;99.90
38604;DHT22;24924;50.054;8.790;2023-10-09T11:34:28;19.80;99.90
38604;DHT22;24924;50.054;8.790;2023-10-09T11:37:12;19.80;99.90
38604;DHT22;24924;50.054;8.790;2023-10-09T11:39:41;20.00;99.90
38604;DHT22;24924;50.054;8.790;2023-10-09T11:42:20;20.10;99.90
38604;DHT22;24924;50.054;8.790;2023-10-09T11:45:03;20.00;99.90
38604;DHT22;24924;50.054;8.790;2023-10-09T11:50:20;20.10;99.90
38604;DHT22;24924;50.054;8.790;2023-10-09T11:52:55;20.20;99.90
38604;DHT22;24924;50.054;8.790;2023-10-09T11:58:06;20.00;99.90
38604;DHT22;24924;50.054;8.790;2023-10-09T12:05:35;19.90;99.90
38604;DHT22;24924;50.054;8.790;2023-10-09T12:08:03;20.10;99.90
38604;DHT22;24924;50.054;8.790;2023-10-09T12:15:31;20.40;99.90
38604;DHT22;24924;50.054;8.790;2023-10-09T12:18:11;20.40;99.90
38604;DHT22;24924;50.054;8.790;2023-10-09T12:20:42;20.50;99.90
38604;DHT22;24924;50.054;8.790;2023-10-09T12:23:13;20.40;99.90
38604;DHT22;24924;50.054;8.790;2023-10-09T12:25:40;20.40;99.90
38604;DHT22;24924;50.054;8.790;2023-10-09T12:33:05;20.50;99.90
38604;DHT22;24924;50.054;8.790;2023-10-09T12:35:36;20.30;99.90
38604;DHT22;24924;50.054;8.790;2023-10-09T12:38:03;20.40;99.90
38604;DHT22;24924;50.054;8.790;2023-10-09T12:40:34;20.30;99.90
38604;DHT22;24924;50.054;8.790;2023-10-09T12:43:01;20.50;99.90
38604;DHT22;24924;50.054;8.790;2023-10-09T12:45:27;20.40;99.90
38604;DHT22;24924;50.054;8.790;2023-10-09T12:47:56;20.40;99.90
38604;DHT22;24924;50.054;8.790;2023-10-09T12:50:33;20.50;99.90
38604;DHT22;24924;50.054;8.790;2023-10-09T12:53:00;20.40;99.90
38604;DHT22;24924;50.054;8.790;2023-10-09T12:55:38;20.50;99.90
38604;DHT22;24924;50.054;8.790;2023-10-09T12:58:08;20.30;99.90
38604;DHT22;24924;50.054;8.790;2023-10-09T13:00:37;20.40;99.90
38604;DHT22;24924;50.054;8.790;2023-10-09T13:05:58;20.40;99.90
38604;DHT22;24924;50.054;8.790;2023-10-09T13:08:25;20.50;99.90
38604;DHT22;24924;50.054;8.790;2023-10-09T13:11:08;20.50;99.90
38604;DHT22;24924;50.054;8.790;2023-10-09T13:13:37;20.60;99.90
38604;DHT22;24924;50.054;8.790;2023-10-09T13:16:12;20.60;99.90
38604;DHT22;24924;50.054;8.790;2023-10-09T13:18:46;20.60;99.90
38604;DHT22;24924;50.054;8.790;2023-10-09T13:21:28;20.60;99.90
38604;DHT22;24924;50.054;8.790;2023-10-09T13:23:57;20.60;99.90
38604;DHT22;24924;50.054;8.790;2023-10-09T13:28:55;20.70;99.90
38604;DHT22;24924;50.054;8.790;2023-10-09T13:31:22;20.70;99.90
38604;DHT22;24924;50.054;8.790;2023-10-09T13:33:54;20.60;99.90
38604;DHT22;24924;50.054;8.790;2023-10-09T13:36:24;20.60;99.90
38604;DHT22;24924;50.054;8.790;2023-10-09T13:38:54;20.60;99.90
38604;DHT22;24924;50.054;8.790;2023-10-09T13:43:47;20.70;99.90
38604;DHT22;24924;50.054;8.790;2023-10-09T13:46:17;20.70;99.90
38604;DHT22;24924;50.054;8.790;2023-10-09T13:48:44;20.70;99.90
38604;DHT22;24924;50.054;8.790;2023-10-09T13:51:11;20.60;99.90
38604;DHT22;24924;50.054;8.790;2023-10-09T13:56:17;20.70;99.90
38604;DHT22;24924;50.054;8.790;2023-10-09T13:58:46;20.80;99.90
38604;DHT22;24924;50.054;8.790;2023-10-09T14:01:12;20.80;99.90
38604;DHT22;24924;50.054;8.790;2023-10-09T14:03:47;20.80;99.90
38604;DHT22;24924;50.054;8.790;2023-10-09T14:11:12;20.80;99.90
38604;DHT22;24924;50.054;8.790;2023-10-09T14:13:40;20.70;99.90
38604;DHT22;24924;50.054;8.790;2023-10-09T14:16:05;20.80;99.90
38604;DHT22;24924;50.054;8.790;2023-10-09T14:18:32;20.70;99.90
38604;DHT22;24924;50.054;8.790;2023-10-09T14:21:04;20.80;99.90
38604;DHT22;24924;50.054;8.790;2023-10-09T14:23:30;20.70;99.90
38604;DHT22;24924;50.054;8.790;2023-10-09T14:26:00;20.50;99.90
38604;DHT22;24924;50.054;8.790;2023-10-09T14:28:27;20.50;99.90
38604;DHT22;24924;50.054;8.790;2023-10-09T14:30:54;20.40;99.90
38604;DHT22;24924;50.054;8.790;2023-10-09T14:33:25;20.30;99.90
38604;DHT22;24924;50.054;8.790;2023-10-09T14:35:54;20.40;99.90
38604;DHT22;24924;50.054;8.790;2023-10-09T14:38:21;20.40;99.90
38604;DHT22;24924;50.054;8.790;2023-10-09T14:43:24;20.10;99.90
38604;DHT22;24924;50.054;8.790;2023-10-09T14:45:54;20.20;99.90
38604;DHT22;24924;50.054;8.790;2023-10-09T14:48:20;20.10;99.90
38604;DHT22;24924;50.054;8.790;2023-10-09T14:53:22;19.90;99.90
38604;DHT22;24924;50.054;8.790;2023-10-09T14:55:56;19.90;99.90
38604;DHT22;24924;50.054;8.790;2023-10-09T14:58:22;19.90;99.90
38604;DHT22;24924;50.054;8.790;2023-10-09T15:00:51;19.80;99.90
38604;DHT22;24924;50.054;8.790;2023-10-09T15:03:18;19.80;99.90
38604;DHT22;24924;50.054;8.790;2023-10-09T15:05:46;19.90;99.90
38604;DHT22;24924;50.054;8.790;2023-10-09T15:08:11;19.80;99.90
38604;DHT22;24924;50.054;8.790;2023-10-09T15:10:50;19.80;99.90
38604;DHT22;24924;50.054;8.790;2023-10-09T15:13:22;19.70;99.90
38604;DHT22;24924;50.054;8.790;2023-10-09T15:15:54;20.20;99.90
38604;DHT22;24924;50.054;8.790;2023-10-09T15:18:20;20.30;99.90
38604;DHT22;24924;50.054;8.790;2023-10-09T15:20:51;20.30;99.90
38604;DHT22;24924;50.054;8.790;2023-10-09T15:23:17;20.40;99.90
38604;DHT22;24924;50.054;8.790;2023-10-09T15:25:45;20.40;99.90
38604;DHT22;24924;50.054;8.790;2023-10-09T15:28:16;20.30;99.90
38604;DHT22;24924;50.054;8.790;2023-10-09T15:33:09;19.90;99.90
38604;DHT22;24924;50.054;8.790;2023-10-09T15:35:37;19.80;99.90
38604;DHT22;24924;50.054;8.790;2023-10-09T15:38:03;19.70;99.90
38604;DHT22;24924;50.054;8.790;2023-10-09T15:40:30;19.60;99.90
38604;DHT22;24924;50.054;8.790;2023-10-09T15:42:59;19.80;99.90
38604;DHT22;24924;50.054;8.790;2023-10-09T15:45:25;20.10;99.90
38604;DHT22;24924;50.054;8.790;2023-10-09T15:47:55;20.20;99.90
38604;DHT22;24924;50.054;8.790;2023-10-09T15:50:21;20.30;99.90
38604;DHT22;24924;50.054;8.790;2023-10-09T15:52:53;20.30;99.90
38604;DHT22;24924;50.054;8.790;2023-10-09T15:55:22;20.30;99.90
38604;DHT22;24924;50.054;8.790;2023-10-09T16:00:18;19.70;99.90
38604;DHT22;24924;50.054;8.790;2023-10-09T16:02:46;19.90;99.90
38604;DHT22;24924;50.054;8.790;2023-10-09T16:07:39;20.00;99.90
38604;DHT22;24924;50.054;8.790;2023-10-09T16:10:08;19.80;99.90
38604;DHT22;24924;50.054;8.790;2023-10-09T16:12:38;19.50;99.90
38604;DHT22;24924;50.054;8.790;2023-10-09T16:15:04;19.50;99.90
38604;DHT22;24924;50.054;8.790;2023-10-09T16:17:34;19.30;99.90
38604;DHT22;24924;50.054;8.790;2023-10-09T16:20:01;19.20;99.90
38604;DHT22;24924;50.054;8.790;2023-10-09T16:22:27;19.30;99.90
38604;DHT22;24924;50.054;8.790;2023-10-09T16:24:59;19.40;99.90
38604;DHT22;24924;50.054;8.790;2023-10-09T16:29:53;19.50;99.90
38604;DHT22;24924;50.054;8.790;2023-10-09T16:32:19;19.40;99.90
38604;DHT22;24924;50.054;8.790;2023-10-09T16:34:50;19.30;99.90
38604;DHT22;24924;50.054;8.790;2023-10-09T16:39:43;18.90;99.90
38604;DHT22;24924;50.054;8.790;2023-10-09T16:42:10;18.80;99.90
38604;DHT22;24924;50.054;8.790;2023-10-09T16:44:37;18.60;99.90
38604;DHT22;24924;50.054;8.790;2023-10-09T16:47:03;18.60;99.90
38604;DHT22;24924;50.054;8.790;2023-10-09T16:49:30;18.60;99.90
38604;DHT22;24924;50.054;8.790;2023-10-09T16:51:56;18.90;99.90
38604;DHT22;24924;50.054;8.790;2023-10-09T16:54:23;18.80;99.90
38604;DHT22;24924;50.054;8.790;2023-10-09T16:56:49;18.60;99.90
38604;DHT22;24924;50.054;8.790;2023-10-09T16:59:17;18.40;99.90
38604;DHT22;24924;50.054;8.790;2023-10-09T17:01:44;18.40;99.90
38604;DHT22;24924;50.054;8.790;2023-10-09T17:04:15;18.40;99.90
38604;DHT22;24924;50.054;8.790;2023-10-09T17:09:16;18.30;99.90
38604;DHT22;24924;50.054;8.790;2023-10-09T17:11:45;18.30;99.90
38604;DHT22;24924;50.054;8.790;2023-10-09T17:14:13;18.20;99.90
38604;DHT22;24924;50.054;8.790;2023-10-09T17:16:41;18.00;99.90
38604;DHT22;24924;50.054;8.790;2023-10-09T17:21:34;18.00;99.90
38604;DHT22;24924;50.054;8.790;2023-10-09T17:24:02;18.20;99.90
38604;DHT22;24924;50.054;8.790;2023-10-09T17:28:55;18.00;99.90
38604;DHT22;24924;50.054;8.790;2023-10-09T17:31:22;17.90;99.90
38604;DHT22;24924;50.054;8.790;2023-10-09T17:33:51;17.80;99.90
38604;DHT22;24924;50.054;8.790;2023-10-09T17:38:46;18.00;99.90
38604;DHT22;24924;50.054;8.790;2023-10-09T17:41:16;17.90;99.90
38604;DHT22;24924;50.054;8.790;2023-10-09T17:43:43;17.80;99.90
38604;DHT22;24924;50.054;8.790;2023-10-09T17:48:38;17.60;99.90
38604;DHT22;24924;50.054;8.790;2023-10-09T17:51:04;17.50;99.90
38604;DHT22;24924;50.054;8.790;2023-10-09T17:53:35;17.50;99.90
38604;DHT22;24924;50.054;8.790;2023-10-09T17:56:05;17.50;99.90
38604;DHT22;24924;50.054;8.790;2023-10-09T17:58:30;17.40;99.90
38604;DHT22;24924;50.054;8.790;2023-10-09T18:00:57;17.40;99.90
38604;DHT22;24924;50.054;8.790;2023-10-09T18:03:23;17.60;99.90
38604;DHT22;24924;50.054;8.790;2023-10-09T18:05:53;17.70;99.90
38604;DHT22;24924;50.054;8.790;2023-10-09T18:08:20;17.50;99.90
38604;DHT22;24924;50.054;8.790;2023-10-09T18:13:15;17.30;99.90
38604;DHT22;24924;50.054;8.790;2023-10-09T18:15:45;17.20;99.90
38604;DHT22;24924;50.054;8.790;2023-10-09T18:18:11;17.00;99.90
38604;DHT22;24924;50.054;8.790;2023-10-09T18:20:47;16.80;99.90
38604;DHT22;24924;50.054;8.790;2023-10-09T18:23:15;16.80;99.90
38604;DHT22;24924;50.054;8.790;2023-10-09T18:25:44;16.70;99.90
38604;DHT22;24924;50.054;8.790;2023-10-09T18:30:37;16.60;99.90
38604;DHT22;24924;50.054;8.790;2023-10-09T18:33:04;16.50;99.90
38604;DHT22;24924;50.054;8.790;2023-10-09T18:35:30;16.50;99.90
38604;DHT22;24924;50.054;8.790;2023-10-09T18:37:59;16.40;99.90
38604;DHT22;24924;50.054;8.790;2023-10-09T18:40:25;16.40;99.90
38604;DHT22;24924;50.054;8.790;2023-10-09T18:42:59;16.40;99.90
38604;DHT22;24924;50.054;8.790;2023-10-09T18:45:25;16.30;99.90
38604;DHT22;24924;50.054;8.790;2023-10-09T18:47:52;16.20;99.90
38604;DHT22;24924;50.054;8.790;2023-10-09T18:50:22;16.20;99.90
38604;DHT22;24924;50.054;8.790;2023-10-09T18:52:48;16.20;99.90
38604;DHT22;24924;50.054;8.790;2023-10-09T18:55:15;16.30;99.90
38604;DHT22;24924;50.054;8.790;2023-10-09T19:00:11;16.40;99.90
38604;DHT22;24924;50.054;8.790;2023-10-09T19:02:38;16.50;99.90
38604;DHT22;24924;50.054;8.790;2023-10-09T19:05:07;16.20;99.90
38604;DHT22;24924;50.054;8.790;2023-10-09T19:07:35;16.10;99.90
38604;DHT22;24924;50.054;8.790;2023-10-09T19:10:01;16.10;99.90
38604;DHT22;24924;50.054;8.790;2023-10-09T19:17:21;16.00;99.90
38604;DHT22;24924;50.054;8.790;2023-10-09T19:24:41;16.10;99.90
38604;DHT22;24924;50.054;8.790;2023-10-09T19:27:07;15.80;99.90
38604;DHT22;24924;50.054;8.790;2023-10-09T19:29:36;16.00;99.90
38604;DHT22;24924;50.054;8.790;2023-10-09T19:32:02;16.00;99.90
38604;DHT22;24924;50.054;8.790;2023-10-09T19:36:54;15.90;99.90
38604;DHT22;24924;50.054;8.790;2023-10-09T19:39:20;15.90;99.90
38604;DHT22;24924;50.054;8.790;2023-10-09T19:41:45;15.70;99.90
38604;DHT22;24924;50.054;8.790;2023-10-09T19:44:11;15.80;99.90
38604;DHT22;24924;50.054;8.790;2023-10-09T19:46:37;15.80;99.90
38604;DHT22;24924;50.054;8.790;2023-10-09T19:49:04;15.80;99.90
38604;DHT22;24924;50.054;8.790;2023-10-09T19:51:30;15.80;99.90